createdAt,value
2023-01-13T00:01:29.628Z,8.33
2023-01-13T00:03:57.735Z,8.31
2023-01-13T00:06:26.086Z,8.34
2023-01-13T00:08:54.883Z,8.36
2023-01-13T00:11:23.391Z,8.28
2023-01-13T00:13:51.563Z,8.33
2023-01-13T00:16:21.030Z,8.28
2023-01-13T00:18:51.259Z,8.27
2023-01-13T00:21:23.225Z,8.24
2023-01-13T00:23:55.316Z,8.24
2023-01-13T00:26:27.820Z,8.25
2023-01-13T00:28:59.013Z,8.18
2023-01-13T00:31:29.462Z,8.19
2023-01-13T00:34:01.610Z,8.22
2023-01-13T00:36:30.890Z,8.23
2023-01-13T00:38:59.451Z,8.22
2023-01-13T00:41:28.047Z,8.22
2023-01-13T00:43:55.899Z,8.23
2023-01-13T00:46:23.886Z,8.21
2023-01-13T00:48:51.915Z,8.23
2023-01-13T00:51:21.691Z,8.31
2023-01-13T00:53:51.981Z,8.29
2023-01-13T00:56:40.529Z,8.23
2023-01-13T00:59:13.743Z,8.26
2023-01-13T01:01:41.994Z,8.27
2023-01-13T01:04:10.932Z,8.27
2023-01-13T01:06:38.858Z,8.28
2023-01-13T01:09:07.263Z,8.27
2023-01-13T01:11:35.351Z,8.27
2023-01-13T01:14:04.330Z,8.28
2023-01-13T01:16:34.007Z,8.29
2023-01-13T01:19:02.390Z,8.30
2023-01-13T01:21:31.346Z,8.29
2023-01-13T01:24:02.333Z,8.31
2023-01-13T01:26:31.954Z,8.32
2023-01-13T01:29:02.064Z,8.32
2023-01-13T01:31:33.256Z,8.33
2023-01-13T01:34:02.063Z,8.34
2023-01-13T01:36:30.459Z,8.35
2023-01-13T01:38:59.945Z,8.36
2023-01-13T01:41:32.609Z,8.33
2023-01-13T01:44:42.669Z,8.33
2023-01-13T01:47:16.132Z,8.32
2023-01-13T01:49:45.913Z,8.32
2023-01-13T01:52:25.956Z,8.31
2023-01-13T01:55:01.466Z,8.32
2023-01-13T01:57:45.565Z,8.31
2023-01-13T02:00:14.778Z,8.31
2023-01-13T02:02:47.331Z,8.32
2023-01-13T02:05:15.983Z,8.32
2023-01-13T02:07:48.808Z,8.32
2023-01-13T02:10:24.033Z,8.32
2023-01-13T02:12:53.119Z,8.31
2023-01-13T02:15:55.017Z,8.28
2023-01-13T02:19:10.700Z,8.26
2023-01-13T02:22:15.234Z,8.27
2023-01-13T02:25:16.659Z,8.27
2023-01-13T02:28:11.957Z,8.24
2023-01-13T02:31:18.180Z,8.24
2023-01-13T02:34:07.138Z,8.24
2023-01-13T02:36:56.680Z,8.24
2023-01-13T02:39:45.970Z,8.24
2023-01-13T02:42:42.211Z,8.20
2023-01-13T02:45:19.961Z,8.21
2023-01-13T02:47:55.792Z,8.22
2023-01-13T02:50:32.296Z,8.21
2023-01-13T02:53:08.680Z,8.20
2023-01-13T02:55:42.614Z,8.21
2023-01-13T02:58:15.857Z,8.21
2023-01-13T03:00:45.976Z,8.21
2023-01-13T03:03:14.442Z,8.24
2023-01-13T03:05:44.823Z,8.22
2023-01-13T03:08:46.640Z,8.22
2023-01-13T03:11:18.894Z,8.23
2023-01-13T03:14:28.000Z,8.24
2023-01-13T03:17:27.809Z,8.25
2023-01-13T03:20:03.720Z,8.26
2023-01-13T03:22:48.659Z,8.26
2023-01-13T03:25:25.955Z,8.28
2023-01-13T03:28:15.401Z,8.30
2023-01-13T03:30:53.494Z,8.33
2023-01-13T03:33:36.224Z,8.33
2023-01-13T03:36:10.841Z,8.33
2023-01-13T03:38:45.412Z,8.35
2023-01-13T03:41:34.172Z,8.33
2023-01-13T03:44:32.963Z,8.36
2023-01-13T03:47:31.683Z,8.37
2023-01-13T03:50:17.995Z,8.38
2023-01-13T03:52:55.591Z,8.39
2023-01-13T03:55:31.332Z,8.42
2023-01-13T03:58:14.193Z,8.41
2023-01-13T04:00:52.601Z,8.42
2023-01-13T04:03:42.400Z,8.45
2023-01-13T04:06:49.059Z,8.48
2023-01-13T04:09:48.177Z,8.49
2023-01-13T04:12:51.434Z,8.48
2023-01-13T04:15:23.884Z,8.49
2023-01-13T04:17:54.324Z,8.50
2023-01-13T04:20:22.267Z,8.50
2023-01-13T04:22:50.207Z,8.51
2023-01-13T04:25:18.120Z,8.52
2023-01-13T04:27:45.987Z,8.51
2023-01-13T04:30:14.012Z,8.48
2023-01-13T04:32:41.888Z,8.48
2023-01-13T04:35:09.916Z,8.47
2023-01-13T04:37:37.885Z,8.45
2023-01-13T04:40:07.058Z,8.46
2023-01-13T04:42:34.944Z,8.46
2023-01-13T04:45:03.045Z,8.46
2023-01-13T04:47:30.911Z,8.44
2023-01-13T04:49:58.776Z,8.43
2023-01-13T04:52:26.636Z,8.43
2023-01-13T04:54:54.590Z,8.43
2023-01-13T04:57:22.486Z,8.41
2023-01-13T04:59:50.352Z,8.36
2023-01-13T05:02:21.263Z,8.37
2023-01-13T05:04:49.339Z,8.35
2023-01-13T05:07:19.563Z,8.35
2023-01-13T05:09:47.413Z,8.35
2023-01-13T05:12:34.318Z,8.35
2023-01-13T05:15:21.273Z,8.36
2023-01-13T05:17:50.231Z,8.32
2023-01-13T05:20:18.329Z,8.32
2023-01-13T05:23:04.836Z,8.34
2023-01-13T05:25:37.494Z,8.34
2023-01-13T05:28:07.134Z,8.35
2023-01-13T05:30:45.890Z,8.36
2023-01-13T05:33:18.033Z,8.37
2023-01-13T05:35:47.472Z,8.36
2023-01-13T05:38:17.974Z,8.38
2023-01-13T05:41:04.410Z,8.38
2023-01-13T05:43:33.144Z,8.36
2023-01-13T05:46:02.308Z,8.37
2023-01-13T05:48:42.471Z,8.34
2023-01-13T05:51:12.746Z,8.39
2023-01-13T05:53:41.376Z,8.37
2023-01-13T05:56:10.060Z,8.40
2023-01-13T05:58:38.241Z,8.41
2023-01-13T06:01:08.756Z,8.39
2023-01-13T06:03:37.788Z,8.39
2023-01-13T06:06:08.706Z,8.37
2023-01-13T06:08:39.426Z,8.37
2023-01-13T06:11:07.924Z,8.37
2023-01-13T06:13:35.888Z,8.37
2023-01-13T06:16:04.110Z,8.33
2023-01-13T06:18:32.154Z,8.35
2023-01-13T06:21:00.120Z,8.30
2023-01-13T06:23:29.218Z,8.33
2023-01-13T06:26:07.535Z,8.34
2023-01-13T06:28:35.542Z,8.32
2023-01-13T06:31:06.621Z,8.34
2023-01-13T06:33:43.679Z,8.29
2023-01-13T06:36:27.270Z,8.32
2023-01-13T06:39:01.213Z,8.31
2023-01-13T06:41:51.117Z,8.32
2023-01-13T06:44:20.587Z,8.36
2023-01-13T06:46:48.574Z,8.35
2023-01-13T06:49:16.458Z,8.32
2023-01-13T06:51:44.378Z,8.28
2023-01-13T06:54:12.342Z,8.22
2023-01-13T06:56:40.230Z,8.26
2023-01-13T06:59:08.287Z,8.27
2023-01-13T07:01:36.233Z,8.25
2023-01-13T07:04:04.969Z,8.20
2023-01-13T07:06:32.959Z,8.22
2023-01-13T07:09:00.824Z,8.22
2023-01-13T07:11:28.726Z,8.23
2023-01-13T07:14:15.046Z,8.25
2023-01-13T07:16:44.412Z,8.27
2023-01-13T07:19:12.387Z,8.29
2023-01-13T07:21:40.267Z,8.29
2023-01-13T07:24:08.190Z,8.29
2023-01-13T07:26:36.029Z,8.29
2023-01-13T07:29:03.902Z,8.31
2023-01-13T07:31:31.965Z,8.31
2023-01-13T07:33:59.955Z,8.31
2023-01-13T07:36:27.793Z,8.31
2023-01-13T07:38:56.655Z,8.33
2023-01-13T07:41:43.325Z,8.34
2023-01-13T07:44:11.261Z,8.35
2023-01-13T07:46:39.861Z,8.37
2023-01-13T07:49:08.931Z,8.37
2023-01-13T07:51:39.267Z,8.31
2023-01-13T07:54:07.242Z,8.33
2023-01-13T07:56:35.145Z,8.35
2023-01-13T07:59:03.389Z,8.36
2023-01-13T08:01:31.937Z,8.41
2023-01-13T08:04:00.124Z,8.42
2023-01-13T08:06:29.099Z,8.43
2023-01-13T08:08:57.014Z,8.51
2023-01-13T08:11:24.937Z,8.55
2023-01-13T08:13:57.746Z,8.58
2023-01-13T08:16:25.765Z,8.59
2023-01-13T08:18:53.692Z,8.62
2023-01-13T08:21:21.902Z,8.66
2023-01-13T08:23:50.105Z,8.68
2023-01-13T08:26:18.656Z,8.71
2023-01-13T08:28:46.546Z,8.72
2023-01-13T08:31:17.010Z,8.77
2023-01-13T08:33:45.790Z,8.85
2023-01-13T08:36:13.785Z,8.94
2023-01-13T08:38:42.221Z,9.01
2023-01-13T08:41:14.313Z,9.05
2023-01-13T08:43:42.313Z,9.08
2023-01-13T08:46:10.346Z,9.10
2023-01-13T08:48:38.276Z,9.12
2023-01-13T08:51:09.151Z,9.20
2023-01-13T08:53:37.027Z,9.24
2023-01-13T08:56:11.636Z,9.30
2023-01-13T08:58:40.822Z,9.33
2023-01-13T09:01:11.053Z,9.43
2023-01-13T09:03:39.574Z,9.49
2023-01-13T09:06:07.951Z,9.49
2023-01-13T09:08:36.243Z,9.53
2023-01-13T09:11:24.381Z,9.57
2023-01-13T09:13:52.729Z,9.60
2023-01-13T09:16:20.623Z,9.61
2023-01-13T09:18:48.535Z,9.63
2023-01-13T09:21:19.925Z,9.61
2023-01-13T09:23:48.094Z,9.59
2023-01-13T09:26:20.781Z,9.60
2023-01-13T09:28:48.816Z,9.60
2023-01-13T09:31:16.764Z,9.68
2023-01-13T09:34:03.410Z,9.75
2023-01-13T09:36:31.367Z,9.76
2023-01-13T09:38:59.416Z,9.78
2023-01-13T09:41:49.685Z,9.86
2023-01-13T09:44:29.547Z,9.95
2023-01-13T09:47:04.471Z,10.14
2023-01-13T09:49:40.491Z,10.25
2023-01-13T09:52:24.584Z,10.24
2023-01-13T09:55:06.175Z,10.16
2023-01-13T09:57:37.809Z,10.06
2023-01-13T10:00:23.843Z,10.04
2023-01-13T10:03:21.287Z,9.97
2023-01-13T10:06:17.750Z,9.97
2023-01-13T10:08:48.946Z,10.04
2023-01-13T10:11:38.533Z,10.21
2023-01-13T10:14:26.057Z,10.22
2023-01-13T10:17:32.393Z,10.18
2023-01-13T10:20:24.754Z,10.17
2023-01-13T10:23:34.311Z,10.18
2023-01-13T10:26:21.028Z,10.30
2023-01-13T10:28:54.428Z,10.35
2023-01-13T10:31:24.365Z,10.51
2023-01-13T10:34:06.175Z,10.61
2023-01-13T10:36:34.107Z,10.70
2023-01-13T10:39:16.677Z,10.72
2023-01-13T10:41:44.804Z,10.81
2023-01-13T10:44:18.563Z,10.84
2023-01-13T10:46:56.916Z,10.82
2023-01-13T10:49:38.716Z,10.75
2023-01-13T10:52:27.786Z,10.69
2023-01-13T10:54:56.564Z,10.75
2023-01-13T10:57:27.591Z,10.70
2023-01-13T10:59:56.251Z,10.59
2023-01-13T11:02:31.519Z,10.53
2023-01-13T11:05:22.751Z,10.45
2023-01-13T11:07:58.015Z,10.35
2023-01-13T11:10:29.295Z,10.27
2023-01-13T11:13:18.199Z,10.20
2023-01-13T11:16:04.357Z,10.18
2023-01-13T11:19:14.097Z,10.16
2023-01-13T11:22:19.112Z,10.04
2023-01-13T11:25:09.546Z,9.80
2023-01-13T11:27:53.127Z,9.79
2023-01-13T11:30:50.842Z,9.83
2023-01-13T11:33:57.251Z,9.81
2023-01-13T11:36:34.702Z,9.81
2023-01-13T11:39:44.347Z,9.75
2023-01-13T11:42:46.393Z,9.81
2023-01-13T11:45:31.971Z,9.73
2023-01-13T11:48:02.197Z,9.70
2023-01-13T11:50:57.189Z,9.79
2023-01-13T11:53:36.140Z,9.87
2023-01-13T11:56:40.848Z,9.87
2023-01-13T11:59:43.251Z,9.81
2023-01-13T12:03:10.209Z,9.73
2023-01-13T12:05:50.180Z,9.69
2023-01-13T12:08:31.142Z,9.68
2023-01-13T12:11:22.798Z,9.64
2023-01-13T12:14:24.686Z,9.63
2023-01-13T12:16:52.638Z,9.62
2023-01-13T12:19:28.047Z,9.58
2023-01-13T12:22:40.524Z,9.59
2023-01-13T12:25:54.898Z,9.63
2023-01-13T12:28:32.348Z,9.61
2023-01-13T12:31:02.815Z,9.58
2023-01-13T12:34:27.799Z,9.56
2023-01-13T12:37:31.170Z,9.55
2023-01-13T12:40:24.946Z,9.59
2023-01-13T12:43:41.907Z,9.64
2023-01-13T12:46:18.626Z,9.62
2023-01-13T12:48:56.890Z,9.60
2023-01-13T12:51:37.666Z,9.62
2023-01-13T12:54:37.378Z,9.61
2023-01-13T12:57:22.346Z,9.68
2023-01-13T13:00:14.102Z,9.62
2023-01-13T13:03:12.400Z,9.62
2023-01-13T13:06:06.877Z,9.65
2023-01-13T13:09:06.681Z,9.60
2023-01-13T13:12:03.130Z,9.59
2023-01-13T13:14:37.000Z,9.54
2023-01-13T13:17:29.902Z,9.51
2023-01-13T13:20:00.114Z,9.52
2023-01-13T13:22:27.947Z,9.52
2023-01-13T13:24:55.831Z,9.48
2023-01-13T13:27:31.276Z,9.36
2023-01-13T13:30:03.912Z,9.30
2023-01-13T13:33:07.972Z,9.28
2023-01-13T13:35:51.922Z,9.19
2023-01-13T13:39:29.681Z,9.20
2023-01-13T13:42:54.646Z,9.28
2023-01-13T13:45:45.195Z,9.33
2023-01-13T13:48:22.591Z,9.31
2023-01-13T13:51:00.267Z,9.32
2023-01-13T13:53:35.996Z,9.22
2023-01-13T13:56:15.374Z,9.25
2023-01-13T13:58:43.709Z,9.23
2023-01-13T14:01:35.173Z,9.16
2023-01-13T14:04:29.914Z,9.16
2023-01-13T14:07:18.478Z,9.16
2023-01-13T14:09:54.642Z,9.13
2023-01-13T14:12:27.551Z,9.08
2023-01-13T14:14:57.524Z,9.05
2023-01-13T14:17:28.990Z,9.09
2023-01-13T14:20:11.938Z,9.09
2023-01-13T14:22:51.015Z,9.09
2023-01-13T14:25:39.459Z,9.09
2023-01-13T14:28:39.829Z,9.05
2023-01-13T14:31:09.932Z,9.07
2023-01-13T14:33:51.699Z,9.05
2023-01-13T14:36:23.679Z,9.06
2023-01-13T14:39:03.436Z,9.06
2023-01-13T14:41:53.467Z,9.07
2023-01-13T14:44:27.616Z,9.06
2023-01-13T14:47:00.459Z,9.07
2023-01-13T14:49:54.875Z,9.06
2023-01-13T14:52:26.027Z,9.08
2023-01-13T14:55:08.249Z,9.09
2023-01-13T14:57:39.478Z,9.07
2023-01-13T15:00:13.574Z,9.05
2023-01-13T15:02:53.673Z,9.05
2023-01-13T15:05:24.479Z,9.02
2023-01-13T15:08:05.112Z,9.00
2023-01-13T15:10:54.627Z,8.98
2023-01-13T15:13:35.782Z,8.93
2023-01-13T15:16:13.268Z,8.93
2023-01-13T15:18:41.265Z,8.95
2023-01-13T15:21:10.067Z,8.91
2023-01-13T15:23:41.087Z,8.91
2023-01-13T15:26:26.041Z,8.89
2023-01-13T15:28:57.201Z,8.85
2023-01-13T15:31:26.751Z,8.79
2023-01-13T15:33:54.823Z,8.68
2023-01-13T15:36:30.068Z,8.63
2023-01-13T15:38:59.683Z,8.57
2023-01-13T15:41:46.452Z,8.50
2023-01-13T15:44:35.075Z,8.43
2023-01-13T15:47:07.392Z,8.35
2023-01-13T15:49:41.986Z,8.30
2023-01-13T15:52:27.545Z,8.26
2023-01-13T15:54:55.494Z,8.21
2023-01-13T15:57:34.123Z,8.14
2023-01-13T16:00:11.817Z,8.08
2023-01-13T16:02:39.847Z,8.02
2023-01-13T16:05:08.113Z,7.96
2023-01-13T16:07:36.392Z,7.92
2023-01-13T16:10:14.745Z,7.88
2023-01-13T16:12:42.688Z,7.82
2023-01-13T16:15:15.780Z,7.77
2023-01-13T16:17:45.875Z,7.74
2023-01-13T16:20:16.983Z,7.72
2023-01-13T16:22:48.029Z,7.67
2023-01-13T16:25:24.834Z,7.67
2023-01-13T16:27:53.635Z,7.65
2023-01-13T16:30:30.830Z,7.59
2023-01-13T16:32:59.018Z,7.55
2023-01-13T16:35:28.624Z,7.52
2023-01-13T16:37:58.434Z,7.49
2023-01-13T16:40:34.142Z,7.41
2023-01-13T16:43:03.792Z,7.39
2023-01-13T16:45:32.955Z,7.35
2023-01-13T16:48:01.228Z,7.33
2023-01-13T16:50:42.095Z,7.29
2023-01-13T16:53:11.904Z,7.27
2023-01-13T16:55:41.969Z,7.24
2023-01-13T16:58:18.694Z,7.18
2023-01-13T17:00:47.753Z,7.15
2023-01-13T17:03:17.047Z,7.12
2023-01-13T17:05:49.605Z,7.09
2023-01-13T17:08:18.281Z,7.07
2023-01-13T17:10:47.338Z,7.03
2023-01-13T17:13:16.965Z,6.99
2023-01-13T17:15:45.825Z,6.98
2023-01-13T17:18:13.907Z,7.00
2023-01-13T17:20:41.924Z,6.99
2023-01-13T17:23:09.794Z,7.00
2023-01-13T17:25:37.761Z,7.00
2023-01-13T17:28:05.770Z,7.00
2023-01-13T17:30:33.689Z,6.97
2023-01-13T17:33:01.646Z,6.97
2023-01-13T17:35:29.664Z,6.97
2023-01-13T17:37:57.565Z,6.96
2023-01-13T17:40:25.431Z,6.96
2023-01-13T17:42:53.430Z,6.96
2023-01-13T17:45:21.415Z,6.95
2023-01-13T17:47:49.405Z,6.96
2023-01-13T17:50:17.545Z,6.93
2023-01-13T17:52:45.400Z,6.93
2023-01-13T17:55:13.244Z,6.94
2023-01-13T17:57:41.132Z,6.96
2023-01-13T18:00:12.042Z,6.96
2023-01-13T18:02:42.713Z,6.95
2023-01-13T18:05:12.555Z,6.94
2023-01-13T18:07:40.527Z,6.92
2023-01-13T18:10:09.680Z,6.93
2023-01-13T18:12:37.744Z,6.92
2023-01-13T18:15:07.130Z,6.93
2023-01-13T18:17:35.102Z,6.92
2023-01-13T18:20:22.100Z,6.93
2023-01-13T18:23:08.660Z,6.96
2023-01-13T18:25:55.457Z,6.95
2023-01-13T18:28:23.361Z,6.98
2023-01-13T18:30:51.297Z,6.98
2023-01-13T18:33:19.282Z,6.97
2023-01-13T18:35:47.325Z,6.96
2023-01-13T18:38:27.658Z,6.99
2023-01-13T18:40:55.545Z,7.00
2023-01-13T18:43:23.485Z,7.04
2023-01-13T18:45:51.555Z,7.08
2023-01-13T18:48:19.571Z,7.10
2023-01-13T18:50:47.558Z,7.05
2023-01-13T18:53:15.417Z,7.08
2023-01-13T18:55:43.310Z,7.09
2023-01-13T18:58:11.504Z,7.11
2023-01-13T19:00:39.360Z,7.09
2023-01-13T19:05:37.799Z,7.09
2023-01-13T19:08:06.234Z,7.06
2023-01-13T19:10:34.254Z,7.04
2023-01-13T19:13:02.225Z,7.01
2023-01-13T19:15:30.359Z,6.99
2023-01-13T19:17:58.749Z,6.95
2023-01-13T19:20:26.693Z,6.89
2023-01-13T19:22:54.829Z,6.90
2023-01-13T19:25:22.958Z,6.86
2023-01-13T19:27:50.988Z,6.88
2023-01-13T19:30:19.144Z,6.87
2023-01-13T19:32:47.228Z,6.84
2023-01-13T19:35:17.934Z,6.80
2023-01-13T19:37:45.951Z,6.78
2023-01-13T19:40:14.062Z,6.74
2023-01-13T19:43:04.057Z,6.67
2023-01-13T19:45:34.962Z,6.67
2023-01-13T19:48:05.040Z,6.64
2023-01-13T19:50:38.778Z,6.60
2023-01-13T19:53:12.341Z,6.61
2023-01-13T19:55:48.523Z,6.60
2023-01-13T19:58:20.994Z,6.58
2023-01-13T20:00:49.053Z,6.55
2023-01-13T20:03:25.953Z,6.50
2023-01-13T20:05:54.961Z,6.46
2023-01-13T20:08:22.950Z,6.42
2023-01-13T20:11:11.189Z,6.38
2023-01-13T20:13:39.095Z,6.37
2023-01-13T20:16:07.771Z,6.37
2023-01-13T20:18:37.099Z,6.36
2023-01-13T20:21:07.034Z,6.33
2023-01-13T20:23:35.962Z,6.29
2023-01-13T20:26:07.681Z,6.33
2023-01-13T20:28:38.762Z,6.31
2023-01-13T20:31:12.339Z,6.29
2023-01-13T20:33:40.723Z,6.28
2023-01-13T20:36:20.375Z,6.27
2023-01-13T20:38:48.300Z,6.27
2023-01-13T20:41:34.888Z,6.27
2023-01-13T20:44:02.837Z,6.27
2023-01-13T20:46:30.878Z,6.25
2023-01-13T20:48:58.769Z,6.24
2023-01-13T20:51:29.372Z,6.19
2023-01-13T20:53:57.635Z,6.20
2023-01-13T20:56:25.566Z,6.18
2023-01-13T20:58:53.476Z,6.13
2023-01-13T21:01:21.473Z,6.10
2023-01-13T21:03:49.674Z,6.11
2023-01-13T21:06:20.249Z,6.09
2023-01-13T21:08:48.643Z,6.07
2023-01-13T21:11:36.504Z,6.08
2023-01-13T21:14:23.251Z,6.05
2023-01-13T21:16:51.278Z,6.03
2023-01-13T21:19:19.267Z,6.00
2023-01-13T21:21:47.279Z,5.98
2023-01-13T21:24:15.201Z,5.97
2023-01-13T21:26:43.165Z,5.94
2023-01-13T21:29:11.078Z,5.92
2023-01-13T21:31:39.048Z,5.92
2023-01-13T21:34:06.915Z,5.89
2023-01-13T21:36:34.853Z,5.88
2023-01-13T21:39:02.951Z,5.86
2023-01-13T21:41:49.503Z,5.86
2023-01-13T21:44:38.683Z,5.86
2023-01-13T21:47:36.803Z,5.86
2023-01-13T21:50:10.378Z,5.85
2023-01-13T21:52:39.043Z,5.91
2023-01-13T21:55:26.248Z,5.91
2023-01-13T21:57:55.414Z,5.92
2023-01-13T22:00:29.885Z,5.91
2023-01-13T22:02:59.438Z,5.94
2023-01-13T22:05:27.371Z,5.91
2023-01-13T22:07:55.455Z,5.90
2023-01-13T22:10:27.006Z,5.89
2023-01-13T22:12:58.521Z,5.89
2023-01-13T22:15:29.040Z,5.89
2023-01-13T22:17:57.563Z,5.90
2023-01-13T22:20:25.826Z,5.95
2023-01-13T22:22:53.679Z,6.00
2023-01-13T22:25:21.732Z,6.02
2023-01-13T22:27:49.772Z,6.02
2023-01-13T22:30:21.619Z,6.00
2023-01-13T22:32:50.013Z,6.00
2023-01-13T22:35:17.961Z,5.98
2023-01-13T22:37:45.835Z,5.98
2023-01-13T22:40:13.947Z,5.96
2023-01-13T22:42:42.943Z,5.95
2023-01-13T22:45:13.707Z,5.94
2023-01-13T22:47:41.945Z,5.90
2023-01-13T22:50:12.351Z,5.82
2023-01-13T22:52:40.273Z,5.82
2023-01-13T22:55:08.507Z,5.82
2023-01-13T22:57:46.961Z,5.82
2023-01-13T23:00:18.949Z,5.81
2023-01-13T23:02:47.115Z,5.76
2023-01-13T23:05:15.101Z,5.73
2023-01-13T23:07:43.024Z,5.71
2023-01-13T23:10:11.415Z,5.68
2023-01-13T23:12:39.418Z,5.67
2023-01-13T23:15:08.063Z,5.68
2023-01-13T23:17:36.036Z,5.65
2023-01-13T23:20:04.214Z,5.63
2023-01-13T23:22:32.170Z,5.62
2023-01-13T23:25:00.025Z,5.61
2023-01-13T23:27:27.896Z,5.62
2023-01-13T23:29:56.234Z,5.61
2023-01-13T23:32:24.142Z,5.60
2023-01-13T23:34:52.162Z,5.58
2023-01-13T23:37:20.056Z,5.58
2023-01-13T23:39:47.936Z,5.57
2023-01-13T23:42:15.968Z,5.56
2023-01-13T23:44:43.946Z,5.57
2023-01-13T23:47:12.649Z,5.56
2023-01-13T23:49:40.899Z,5.53
2023-01-13T23:52:08.779Z,5.51
2023-01-13T23:54:36.685Z,5.49
2023-01-13T23:57:04.566Z,5.49
2023-01-13T23:59:32.516Z,5.47
